Time;durP1;ratioP1;P1;durP2;ratioP2;P2;SDS_P1;SDS_P2;PMS_P1;PMS_P2;Temp;Humidity;BMP_temperature;BMP_pressure;BME280_temperature;BME280_humidity;BME280_pressure;Samples;Min_cycle;Max_cycle;Signal;HPM_P1;HPM_P2
2022/01/02 00:00:09;;;;;;;0.30;0.30;;;;;;;;;;4990170;28;20042;-75
2022/01/02 00:02:36;;;;;;;0.30;0.30;;;;;;;;;;4991525;28;20153;-75
2022/01/02 00:05:06;;;;;;;0.30;0.30;;;;;;;;;;4992431;28;20030;-76
2022/01/02 00:07:35;;;;;;;0.30;0.30;;;;;;;;;;4992588;28;20502;-75
2022/01/02 00:10:04;;;;;;;0.28;0.28;;;;;;;;;;4992417;28;20575;-75
2022/01/02 00:12:33;;;;;;;0.30;0.30;;;;;;;;;;4990004;28;20405;-78
2022/01/02 00:15:02;;;;;;;0.30;0.30;;;;;;;;;;4990011;28;20054;-76
2022/01/02 00:17:30;;;;;;;0.30;0.30;;;;;;;;;;4991570;28;20060;-75
2022/01/02 00:19:58;;;;;;;0.22;0.22;;;;;;;;;;4992192;28;20030;-76
2022/01/02 00:22:31;;;;;;;0.20;0.20;;;;;;;;;;4992006;28;20085;-75
2022/01/02 00:24:58;;;;;;;0.30;0.30;;;;;;;;;;4995665;28;20117;-76
2022/01/02 00:27:25;;;;;;;0.30;0.30;;;;;;;;;;4988576;28;20041;-76
2022/01/02 00:29:51;;;;;;;0.30;0.30;;;;;;;;;;4990075;28;20371;-76
2022/01/02 00:32:17;;;;;;;0.30;0.30;;;;;;;;;;5000971;28;20034;-76
2022/01/02 00:34:43;;;;;;;0.30;0.30;;;;;;;;;;4999693;28;20034;-75
2022/01/02 00:37:10;;;;;;;0.20;0.20;;;;;;;;;;4999978;28;20038;-75
2022/01/02 00:39:37;;;;;;;0.30;0.30;;;;;;;;;;4990019;28;20026;-75
2022/01/02 00:42:07;;;;;;;0.20;0.20;;;;;;;;;;4988754;28;20042;-75
2022/01/02 00:44:45;;;;;;;0.20;0.20;;;;;;;;;;4990742;28;20037;-76
2022/01/02 00:47:26;;;;;;;0.20;0.20;;;;;;;;;;5006548;28;20030;-76
2022/01/02 00:50:12;;;;;;;0.20;0.20;;;;;;;;;;4991788;28;20041;-75
2022/01/02 00:52:40;;;;;;;0.22;0.22;;;;;;;;;;4991381;28;20128;-75
2022/01/02 00:55:08;;;;;;;0.30;0.30;;;;;;;;;;4991341;28;20026;-76
2022/01/02 00:57:36;;;;;;;0.28;0.28;;;;;;;;;;4986648;28;20046;-75
2022/01/02 01:00:05;;;;;;;0.30;0.30;;;;;;;;;;4985526;28;20040;-75
2022/01/02 01:02:50;;;;;;;0.30;0.30;;;;;;;;;;5000990;28;20030;-77
2022/01/02 01:05:36;;;;;;;0.20;0.20;;;;;;;;;;4990952;28;20034;-77
2022/01/02 01:08:03;;;;;;;0.20;0.20;;;;;;;;;;4990940;28;20425;-77
2022/01/02 01:10:31;;;;;;;0.30;0.30;;;;;;;;;;4990985;28;20033;-77
2022/01/02 01:12:59;;;;;;;0.20;0.20;;;;;;;;;;4991464;28;20137;-76
2022/01/02 01:15:29;;;;;;;0.20;0.20;;;;;;;;;;4988021;28;20038;-77
2022/01/02 01:17:57;;;;;;;0.30;0.30;;;;;;;;;;4988602;28;20037;-76
2022/01/02 01:20:27;;;;;;;0.30;0.30;;;;;;;;;;4990452;28;20037;-76
2022/01/02 01:22:53;;;;;;;0.32;0.32;;;;;;;;;;5006174;28;20038;-75
2022/01/02 01:25:20;;;;;;;0.20;0.20;;;;;;;;;;4995235;28;20030;-75
2022/01/02 01:27:46;;;;;;;0.30;0.30;;;;;;;;;;4990423;28;20030;-76
2022/01/02 01:30:13;;;;;;;0.30;0.30;;;;;;;;;;4986537;28;20026;-75
2022/01/02 01:32:39;;;;;;;0.22;0.22;;;;;;;;;;5021013;28;20104;-76
2022/01/02 01:35:06;;;;;;;0.30;0.30;;;;;;;;;;5021482;28;20034;-75
2022/01/02 01:37:32;;;;;;;0.30;0.30;;;;;;;;;;4989543;28;20497;-76
2022/01/02 01:39:58;;;;;;;0.22;0.22;;;;;;;;;;4990425;28;20096;-75
2022/01/02 01:42:35;;;;;;;0.30;0.30;;;;;;;;;;5002155;28;20524;-76
2022/01/02 01:47:46;;;;;;;0.30;0.30;;;;;;;;;;5000748;28;20044;-76
2022/01/02 01:50:13;;;;;;;0.30;0.30;;;;;;;;;;4998697;28;20030;-75
2022/01/02 01:52:39;;;;;;;0.22;0.22;;;;;;;;;;4994379;28;20031;-75
2022/01/02 01:55:05;;;;;;;0.30;0.30;;;;;;;;;;4990268;28;20033;-75
2022/01/02 01:57:32;;;;;;;0.30;0.30;;;;;;;;;;4988065;28;20154;-75
2022/01/02 01:59:58;;;;;;;0.32;0.32;;;;;;;;;;4987977;28;20041;-75
2022/01/02 02:02:24;;;;;;;0.20;0.20;;;;;;;;;;4989478;28;20049;-75
2022/01/02 02:04:50;;;;;;;0.20;0.20;;;;;;;;;;4989637;28;20023;-75
2022/01/02 02:07:16;;;;;;;0.20;0.20;;;;;;;;;;4989439;28;20528;-75
2022/01/02 02:09:59;;;;;;;0.20;0.20;;;;;;;;;;4988903;28;20030;-75
2022/01/02 02:12:26;;;;;;;0.20;0.20;;;;;;;;;;5000399;28;20035;-76
2022/01/02 02:14:52;;;;;;;0.30;0.30;;;;;;;;;;4987749;28;20089;-75
2022/01/02 02:17:18;;;;;;;0.20;0.20;;;;;;;;;;4999362;28;20628;-75
2022/01/02 02:19:46;;;;;;;0.30;0.30;;;;;;;;;;4998696;28;20037;-75
2022/01/02 02:22:12;;;;;;;0.30;0.30;;;;;;;;;;4998224;28;20026;-76
2022/01/02 02:24:40;;;;;;;0.20;0.20;;;;;;;;;;5008022;28;20022;-76
2022/01/02 02:27:06;;;;;;;0.20;0.20;;;;;;;;;;4986407;28;20500;-76
2022/01/02 02:29:33;;;;;;;0.20;0.20;;;;;;;;;;4989133;28;20900;-76
2022/01/02 02:31:59;;;;;;;0.20;0.20;;;;;;;;;;4996153;28;20026;-76
2022/01/02 02:34:25;;;;;;;0.20;0.20;;;;;;;;;;4995855;28;20049;-75
2022/01/02 02:36:51;;;;;;;0.20;0.20;;;;;;;;;;4989466;28;20493;-75
2022/01/02 02:39:17;;;;;;;0.20;0.20;;;;;;;;;;4986806;28;20030;-75
2022/01/02 02:41:45;;;;;;;0.30;0.30;;;;;;;;;;5000402;28;20038;-75
2022/01/02 02:44:34;;;;;;;0.30;0.30;;;;;;;;;;4989830;28;20065;-75
2022/01/02 02:49:44;;;;;;;0.30;0.30;;;;;;;;;;4993718;28;20114;-76
2022/01/02 02:52:24;;;;;;;0.20;0.20;;;;;;;;;;4993297;28;20104;-76
2022/01/02 02:54:51;;;;;;;0.20;0.20;;;;;;;;;;5004830;28;20030;-76
2022/01/02 02:57:19;;;;;;;0.25;0.25;;;;;;;;;;4989230;28;20048;-75
2022/01/02 02:59:45;;;;;;;0.20;0.20;;;;;;;;;;4992225;28;20041;-76
2022/01/02 03:02:11;;;;;;;0.40;0.40;;;;;;;;;;4993805;28;20038;-75
2022/01/02 03:04:37;;;;;;;0.30;0.30;;;;;;;;;;4996842;28;20022;-76
2022/01/02 03:07:03;;;;;;;0.30;0.30;;;;;;;;;;5002846;28;20404;-75
2022/01/02 03:11:58;;;;;;;0.30;0.30;;;;;;;;;;4991057;28;20321;-76
2022/01/02 03:14:24;;;;;;;0.30;0.30;;;;;;;;;;4992675;28;20136;-76
2022/01/02 03:16:50;;;;;;;0.40;0.40;;;;;;;;;;4993732;28;20124;-75
2022/01/02 03:19:17;;;;;;;0.30;0.30;;;;;;;;;;5000745;28;20088;-75
2022/01/02 03:21:43;;;;;;;0.30;0.30;;;;;;;;;;4992541;28;20559;-75
2022/01/02 03:24:09;;;;;;;0.30;0.30;;;;;;;;;;4993944;28;20037;-75
2022/01/02 03:26:35;;;;;;;0.20;0.20;;;;;;;;;;4992163;28;20037;-75
2022/01/02 03:29:01;;;;;;;0.30;0.30;;;;;;;;;;4992403;28;20457;-75
2022/01/02 03:31:27;;;;;;;0.30;0.30;;;;;;;;;;4992363;28;20059;-75
2022/01/02 03:33:53;;;;;;;0.30;0.30;;;;;;;;;;4992675;28;20883;-76
2022/01/02 03:36:19;;;;;;;0.20;0.20;;;;;;;;;;5002859;28;20066;-75
2022/01/02 03:38:45;;;;;;;0.20;0.20;;;;;;;;;;4992054;28;20068;-76
2022/01/02 03:41:11;;;;;;;0.20;0.20;;;;;;;;;;4992644;28;20038;-77
2022/01/02 03:43:37;;;;;;;0.40;0.40;;;;;;;;;;4991103;28;20285;-75
2022/01/02 03:46:04;;;;;;;0.30;0.30;;;;;;;;;;4992043;28;20072;-76
2022/01/02 03:48:31;;;;;;;0.30;0.30;;;;;;;;;;4989425;28;20026;-76
2022/01/02 03:50:57;;;;;;;0.30;0.30;;;;;;;;;;4989657;28;20113;-76
2022/01/02 03:53:23;;;;;;;0.20;0.20;;;;;;;;;;4997451;28;20452;-76
2022/01/02 03:55:49;;;;;;;0.30;0.30;;;;;;;;;;5030626;28;20042;-76
2022/01/02 03:58:15;;;;;;;0.25;0.25;;;;;;;;;;5003111;28;20128;-75
2022/01/02 04:00:42;;;;;;;0.20;0.20;;;;;;;;;;5002520;28;20085;-75
2022/01/02 04:03:08;;;;;;;0.20;0.20;;;;;;;;;;4994232;28;20034;-75
2022/01/02 04:05:34;;;;;;;0.20;0.20;;;;;;;;;;5002471;28;20080;-75
2022/01/02 04:08:00;;;;;;;0.20;0.20;;;;;;;;;;5000048;28;20043;-75
2022/01/02 04:10:26;;;;;;;0.20;0.20;;;;;;;;;;4998436;28;20110;-76
2022/01/02 04:12:52;;;;;;;0.20;0.20;;;;;;;;;;5001211;28;20038;-76
2022/01/02 04:15:18;;;;;;;0.30;0.30;;;;;;;;;;4987561;28;20061;-76
2022/01/02 04:17:44;;;;;;;0.20;0.20;;;;;;;;;;4991115;28;20046;-75
2022/01/02 04:20:12;;;;;;;0.20;0.20;;;;;;;;;;4991698;28;20034;-74
2022/01/02 04:22:38;;;;;;;0.20;0.20;;;;;;;;;;4991858;28;20317;-75
2022/01/02 04:25:05;;;;;;;0.20;0.20;;;;;;;;;;4991058;28;20080;-75
2022/01/02 04:27:31;;;;;;;0.20;0.20;;;;;;;;;;5002806;28;20030;-74
2022/01/02 04:29:57;;;;;;;0.20;0.20;;;;;;;;;;5004921;28;20113;-75
2022/01/02 04:32:23;;;;;;;0.20;0.20;;;;;;;;;;4991734;28;20161;-74
2022/01/02 04:34:49;;;;;;;0.20;0.20;;;;;;;;;;4991346;28;20800;-74
2022/01/02 04:37:15;;;;;;;0.30;0.30;;;;;;;;;;4991587;28;20034;-75
2022/01/02 04:39:41;;;;;;;0.40;0.40;;;;;;;;;;4990719;28;20026;-75
2022/01/02 04:42:07;;;;;;;0.40;0.40;;;;;;;;;;4988190;28;20048;-74
2022/01/02 04:44:33;;;;;;;0.38;0.38;;;;;;;;;;4990950;28;20129;-75
2022/01/02 04:47:00;;;;;;;0.40;0.40;;;;;;;;;;4991477;28;20113;-75
2022/01/02 04:49:26;;;;;;;0.35;0.35;;;;;;;;;;4993223;28;20500;-74
2022/01/02 04:51:53;;;;;;;0.40;0.40;;;;;;;;;;5001929;28;20605;-75
2022/01/02 04:54:20;;;;;;;0.52;0.50;;;;;;;;;;4987181;28;20022;-75
2022/01/02 04:56:46;;;;;;;0.30;0.30;;;;;;;;;;4990264;28;20049;-75
2022/01/02 04:59:12;;;;;;;0.40;0.40;;;;;;;;;;5006139;28;20135;-74
2022/01/02 05:01:38;;;;;;;0.38;0.38;;;;;;;;;;4991092;28;20142;-75
2022/01/02 05:04:04;;;;;;;0.30;0.30;;;;;;;;;;4997620;28;20125;-74
2022/01/02 05:06:30;;;;;;;0.30;0.30;;;;;;;;;;5002482;28;20030;-74
2022/01/02 05:08:56;;;;;;;0.40;0.40;;;;;;;;;;4988279;28;20033;-76
2022/01/02 05:11:22;;;;;;;0.30;0.30;;;;;;;;;;4990792;28;20030;-75
2022/01/02 05:13:48;;;;;;;0.30;0.30;;;;;;;;;;4990650;28;20033;-75
2022/01/02 05:16:14;;;;;;;0.30;0.30;;;;;;;;;;4990780;28;20037;-75
2022/01/02 05:18:40;;;;;;;0.30;0.30;;;;;;;;;;4998796;28;20125;-75
2022/01/02 05:21:06;;;;;;;0.30;0.30;;;;;;;;;;4987511;28;20569;-75
2022/01/02 05:23:32;;;;;;;0.30;0.30;;;;;;;;;;5001075;28;20073;-74
2022/01/02 05:25:58;;;;;;;0.40;0.40;;;;;;;;;;4992143;28;20046;-75
2022/01/02 05:28:26;;;;;;;0.30;0.30;;;;;;;;;;4990447;28;20030;-74
2022/01/02 05:30:52;;;;;;;0.30;0.30;;;;;;;;;;4990490;28;20069;-74
2022/01/02 05:33:18;;;;;;;0.30;0.30;;;;;;;;;;4985588;28;20042;-75
2022/01/02 05:35:44;;;;;;;0.30;0.30;;;;;;;;;;5000824;28;20132;-74
2022/01/02 05:38:10;;;;;;;0.30;0.30;;;;;;;;;;4990395;28;20088;-74
2022/01/02 05:40:36;;;;;;;0.30;0.30;;;;;;;;;;4994348;28;20831;-75
2022/01/02 05:43:03;;;;;;;0.20;0.20;;;;;;;;;;4998681;28;20502;-75
2022/01/02 05:45:29;;;;;;;;;;;;;;;;;;5002143;28;20034;-75
2022/01/02 05:47:55;;;;;;;0.20;0.20;;;;;;;;;;4987833;28;20387;-75
2022/01/02 05:50:21;;;;;;;0.30;0.30;;;;;;;;;;4990701;28;20014;-75
2022/01/02 05:52:47;;;;;;;0.20;0.20;;;;;;;;;;4990310;28;20034;-75
2022/01/02 05:55:13;;;;;;;0.40;0.40;;;;;;;;;;4990182;28;20458;-75
2022/01/02 05:57:39;;;;;;;0.30;0.30;;;;;;;;;;4987197;28;20042;-75
2022/01/02 06:00:06;;;;;;;0.30;0.30;;;;;;;;;;5000984;28;20497;-75
2022/01/02 06:02:32;;;;;;;;;;;;;;;;;;5000812;28;20844;-74
2022/01/02 06:04:59;;;;;;;0.43;0.43;;;;;;;;;;4997658;28;19936;-76
2022/01/02 06:07:25;;;;;;;0.35;0.35;;;;;;;;;;4995749;28;20801;-75
2022/01/02 06:09:51;;;;;;;0.25;0.25;;;;;;;;;;4989363;28;20038;-75
2022/01/02 06:12:17;;;;;;;0.30;0.30;;;;;;;;;;4985018;28;20505;-75
2022/01/02 06:14:43;;;;;;;0.30;0.30;;;;;;;;;;4988619;28;20050;-75
2022/01/02 06:17:09;;;;;;;0.40;0.40;;;;;;;;;;4989086;28;20116;-75
2022/01/02 06:19:35;;;;;;;0.30;0.30;;;;;;;;;;4992668;28;20030;-74
2022/01/02 06:22:01;;;;;;;0.30;0.30;;;;;;;;;;5000676;28;20029;-75
2022/01/02 06:24:27;;;;;;;0.30;0.30;;;;;;;;;;4986207;28;20093;-75
2022/01/02 06:26:53;;;;;;;0.50;0.50;;;;;;;;;;4987445;28;20270;-75
2022/01/02 06:29:19;;;;;;;0.40;0.40;;;;;;;;;;4989864;28;20069;-75
2022/01/02 06:31:45;;;;;;;0.40;0.40;;;;;;;;;;4989586;28;20045;-75
2022/01/02 06:34:12;;;;;;;0.30;0.30;;;;;;;;;;5004602;28;20452;-74
2022/01/02 06:36:38;;;;;;;0.40;0.40;;;;;;;;;;4999649;28;20042;-75
2022/01/02 06:39:04;;;;;;;0.30;0.30;;;;;;;;;;5000405;28;20033;-74
2022/01/02 06:41:30;;;;;;;0.30;0.30;;;;;;;;;;4999718;28;20470;-75
2022/01/02 06:43:56;;;;;;;0.30;0.30;;;;;;;;;;4991457;28;20706;-75
2022/01/02 06:46:22;;;;;;;0.30;0.30;;;;;;;;;;4990756;28;20030;-75
2022/01/02 06:48:49;;;;;;;0.38;0.38;;;;;;;;;;5000465;28;20512;-75
2022/01/02 06:51:15;;;;;;;0.30;0.30;;;;;;;;;;4986096;28;23176;-74
2022/01/02 06:53:41;;;;;;;0.40;0.40;;;;;;;;;;4999735;28;20033;-75
2022/01/02 06:56:07;;;;;;;0.50;0.50;;;;;;;;;;4997537;28;20061;-75
2022/01/02 06:58:38;;;;;;;0.30;0.30;;;;;;;;;;4994835;28;20065;-75
2022/01/02 07:01:04;;;;;;;0.30;0.30;;;;;;;;;;4989275;28;20045;-76
2022/01/02 07:03:30;;;;;;;0.30;0.30;;;;;;;;;;4994606;28;20030;-75
2022/01/02 07:05:56;;;;;;;0.30;0.30;;;;;;;;;;4986524;28;20032;-75
2022/01/02 07:08:23;;;;;;;0.40;0.40;;;;;;;;;;4988918;28;20088;-76
2022/01/02 07:10:49;;;;;;;0.40;0.40;;;;;;;;;;4993719;28;20173;-76
2022/01/02 07:13:15;;;;;;;0.40;0.40;;;;;;;;;;4996862;28;20034;-76
2022/01/02 07:15:41;;;;;;;0.30;0.30;;;;;;;;;;4986061;28;20072;-75
2022/01/02 07:18:07;;;;;;;0.30;0.30;;;;;;;;;;5000536;28;20564;-76
2022/01/02 07:20:33;;;;;;;0.40;0.40;;;;;;;;;;4997791;28;20401;-76
2022/01/02 07:22:59;;;;;;;0.30;0.30;;;;;;;;;;4991023;28;20034;-75
2022/01/02 07:25:25;;;;;;;0.30;0.30;;;;;;;;;;4990913;28;20037;-76
2022/01/02 07:27:51;;;;;;;0.30;0.30;;;;;;;;;;5000173;28;20385;-75
2022/01/02 07:30:17;;;;;;;0.33;0.33;;;;;;;;;;4984709;28;20048;-75
2022/01/02 07:32:43;;;;;;;0.40;0.40;;;;;;;;;;4988516;28;20034;-75
2022/01/02 07:35:09;;;;;;;0.70;0.70;;;;;;;;;;4997750;28;20069;-76
2022/01/02 07:37:36;;;;;;;0.40;0.40;;;;;;;;;;5001865;28;20112;-75
2022/01/02 07:40:06;;;;;;;0.30;0.30;;;;;;;;;;5000645;28;20332;-75
2022/01/02 07:42:33;;;;;;;0.30;0.30;;;;;;;;;;5003556;28;20073;-75
2022/01/02 07:44:59;;;;;;;0.38;0.38;;;;;;;;;;4989698;28;20057;-75
2022/01/02 07:47:25;;;;;;;0.40;0.40;;;;;;;;;;4991956;28;20034;-75
2022/01/02 07:49:51;;;;;;;0.45;0.45;;;;;;;;;;4991901;28;20780;-76
2022/01/02 07:52:17;;;;;;;0.40;0.40;;;;;;;;;;4992063;28;20575;-75
2022/01/02 07:54:43;;;;;;;0.35;0.35;;;;;;;;;;4989309;28;20027;-75
2022/01/02 07:57:09;;;;;;;0.30;0.30;;;;;;;;;;5003532;28;20506;-75
2022/01/02 07:59:35;;;;;;;0.40;0.40;;;;;;;;;;4991713;28;20398;-75
2022/01/02 08:02:01;;;;;;;0.40;0.40;;;;;;;;;;4998949;28;20524;-75
2022/01/02 08:04:27;;;;;;;0.30;0.30;;;;;;;;;;5000967;28;20455;-75
2022/01/02 08:06:53;;;;;;;0.30;0.30;;;;;;;;;;5002735;28;20572;-75
2022/01/02 08:09:19;;;;;;;0.30;0.30;;;;;;;;;;4988116;28;20030;-75
2022/01/02 08:11:45;;;;;;;0.30;0.30;;;;;;;;;;4991412;28;20422;-75
2022/01/02 08:14:12;;;;;;;0.30;0.30;;;;;;;;;;5000073;28;20046;-76
2022/01/02 08:16:38;;;;;;;0.30;0.30;;;;;;;;;;4996579;28;20050;-76
2022/01/02 08:19:08;;;;;;;0.30;0.30;;;;;;;;;;5014074;28;20080;-77
2022/01/02 08:21:34;;;;;;;0.40;0.40;;;;;;;;;;5006930;28;20285;-76
2022/01/02 08:24:00;;;;;;;0.43;0.43;;;;;;;;;;5004878;28;20112;-75
2022/01/02 08:26:26;;;;;;;0.40;0.40;;;;;;;;;;4996517;28;20053;-75
2022/01/02 08:28:53;;;;;;;0.65;0.65;;;;;;;;;;4999487;28;20511;-75
2022/01/02 08:31:19;;;;;;;0.40;0.40;;;;;;;;;;4999546;28;20066;-76
2022/01/02 08:33:45;;;;;;;0.40;0.40;;;;;;;;;;5002332;28;20055;-75
2022/01/02 08:36:11;;;;;;;0.40;0.40;;;;;;;;;;4997827;28;20041;-75
2022/01/02 08:38:37;;;;;;;0.57;0.57;;;;;;;;;;4999641;28;20595;-75
2022/01/02 08:41:04;;;;;;;0.40;0.40;;;;;;;;;;4996693;28;20045;-74
2022/01/02 08:43:31;;;;;;;0.45;0.45;;;;;;;;;;4999183;28;20036;-75
2022/01/02 08:45:57;;;;;;;0.40;0.40;;;;;;;;;;5000963;28;20041;-75
2022/01/02 08:48:23;;;;;;;0.40;0.40;;;;;;;;;;5001756;28;20120;-75
2022/01/02 08:50:50;;;;;;;0.40;0.40;;;;;;;;;;5002744;28;20026;-75
2022/01/02 08:53:16;;;;;;;0.40;0.40;;;;;;;;;;4994440;28;20109;-75
2022/01/02 08:55:42;;;;;;;0.40;0.40;;;;;;;;;;4997059;28;20324;-75
2022/01/02 08:58:11;;;;;;;0.40;0.40;;;;;;;;;;4999658;28;20046;-75
2022/01/02 09:00:37;;;;;;;0.40;0.40;;;;;;;;;;4988944;28;20092;-75
2022/01/02 09:03:04;;;;;;;0.40;0.40;;;;;;;;;;5001544;28;20030;-77
2022/01/02 09:05:30;;;;;;;0.50;0.50;;;;;;;;;;5001567;28;20084;-78
2022/01/02 09:07:57;;;;;;;0.30;0.30;;;;;;;;;;4990315;28;20395;-78
2022/01/02 09:10:23;;;;;;;0.30;0.30;;;;;;;;;;4995999;28;20034;-81
2022/01/02 09:12:49;;;;;;;0.55;0.55;;;;;;;;;;4998662;28;20072;-81
2022/01/02 09:15:16;;;;;;;0.40;0.40;;;;;;;;;;5001643;28;20076;-82
2022/01/02 09:17:42;;;;;;;0.40;0.40;;;;;;;;;;5003336;28;20128;-82
2022/01/02 09:20:09;;;;;;;0.30;0.30;;;;;;;;;;5001237;28;20040;-82
2022/01/02 09:22:37;;;;;;;0.40;0.40;;;;;;;;;;5001835;28;20080;-76
2022/01/02 09:25:03;;;;;;;0.40;0.40;;;;;;;;;;5001232;28;20069;-77
2022/01/02 09:27:30;;;;;;;0.40;0.40;;;;;;;;;;4993838;28;20030;-77
2022/01/02 09:29:56;;;;;;;0.50;0.50;;;;;;;;;;4987102;28;20074;-79
2022/01/02 09:32:22;;;;;;;0.40;0.40;;;;;;;;;;4992175;28;20057;-82
2022/01/02 09:34:48;;;;;;;0.40;0.40;;;;;;;;;;4987508;28;20297;-80
2022/01/02 09:37:14;;;;;;;0.38;0.38;;;;;;;;;;4986773;28;20137;-80
2022/01/02 09:39:40;;;;;;;0.40;0.40;;;;;;;;;;4987720;28;20614;-78
2022/01/02 09:42:06;;;;;;;0.47;0.47;;;;;;;;;;5017475;28;20521;-76
2022/01/02 09:44:33;;;;;;;0.40;0.40;;;;;;;;;;4990663;28;20158;-75
2022/01/02 09:46:59;;;;;;;0.30;0.30;;;;;;;;;;4987594;28;20289;-76
2022/01/02 09:49:25;;;;;;;0.40;0.40;;;;;;;;;;4986814;28;20022;-79
2022/01/02 09:51:51;;;;;;;0.50;0.50;;;;;;;;;;4987279;28;20049;-78
2022/01/02 09:54:17;;;;;;;0.40;0.40;;;;;;;;;;4989267;28;20185;-79
2022/01/02 09:56:43;;;;;;;0.50;0.50;;;;;;;;;;4988647;28;20875;-78
2022/01/02 09:59:09;;;;;;;0.40;0.40;;;;;;;;;;4985667;28;20968;-79
2022/01/02 10:01:36;;;;;;;0.40;0.40;;;;;;;;;;4984959;28;20034;-76
2022/01/02 10:04:02;;;;;;;0.40;0.40;;;;;;;;;;4993469;28;20065;-76
2022/01/02 10:06:47;;;;;;;0.40;0.40;;;;;;;;;;4990097;28;20402;-76
2022/01/02 10:09:17;;;;;;;0.40;0.40;;;;;;;;;;5004603;28;20284;-75
2022/01/02 10:11:43;;;;;;;0.30;0.30;;;;;;;;;;4990672;28;20137;-75
2022/01/02 10:14:10;;;;;;;0.40;0.40;;;;;;;;;;4987121;28;20039;-75
2022/01/02 10:16:37;;;;;;;0.30;0.30;;;;;;;;;;4986151;28;20046;-75
2022/01/02 10:19:20;;;;;;;0.50;0.50;;;;;;;;;;4986394;28;20049;-75
2022/01/02 10:22:12;;;;;;;0.40;0.40;;;;;;;;;;4986081;28;20029;-75
2022/01/02 10:24:47;;;;;;;0.40;0.40;;;;;;;;;;4989130;28;20042;-75
2022/01/02 10:27:15;;;;;;;0.40;0.40;;;;;;;;;;4990273;28;20037;-75
2022/01/02 10:29:44;;;;;;;0.45;0.45;;;;;;;;;;5001591;28;20030;-75
2022/01/02 10:32:27;;;;;;;0.30;0.30;;;;;;;;;;4987791;28;20868;-76
2022/01/02 10:34:54;;;;;;;0.30;0.30;;;;;;;;;;4987342;28;20121;-75
2022/01/02 10:37:27;;;;;;;0.40;0.40;;;;;;;;;;4985912;28;20117;-75
2022/01/02 10:39:53;;;;;;;0.30;0.30;;;;;;;;;;4985891;28;20034;-75
2022/01/02 10:42:19;;;;;;;0.30;0.30;;;;;;;;;;4985904;28;20410;-76
2022/01/02 10:44:46;;;;;;;0.40;0.40;;;;;;;;;;4989585;28;20029;-75
2022/01/02 10:47:21;;;;;;;0.40;0.40;;;;;;;;;;4987676;28;20475;-76
2022/01/02 10:50:04;;;;;;;0.30;0.30;;;;;;;;;;4999524;28;20029;-75
2022/01/02 10:52:38;;;;;;;0.40;0.40;;;;;;;;;;4992565;28;20023;-76
2022/01/02 10:55:13;;;;;;;0.30;0.30;;;;;;;;;;4990885;28;20030;-77
2022/01/02 10:57:42;;;;;;;0.30;0.30;;;;;;;;;;5003368;28;20489;-77
2022/01/02 11:00:08;;;;;;;0.30;0.30;;;;;;;;;;4988816;28;20502;-76
2022/01/02 11:02:35;;;;;;;0.30;0.30;;;;;;;;;;4989978;28;20034;-77
2022/01/02 11:05:04;;;;;;;0.30;0.30;;;;;;;;;;4988777;28;20096;-76
2022/01/02 11:07:35;;;;;;;0.30;0.30;;;;;;;;;;4984669;28;20038;-77
2022/01/02 11:10:02;;;;;;;0.30;0.30;;;;;;;;;;4989093;28;20026;-78
2022/01/02 11:12:28;;;;;;;0.30;0.30;;;;;;;;;;4992075;28;20588;-77
2022/01/02 11:14:54;;;;;;;0.30;0.30;;;;;;;;;;4991688;28;20081;-77
2022/01/02 11:17:20;;;;;;;0.30;0.30;;;;;;;;;;4992807;28;20298;-77
2022/01/02 11:19:47;;;;;;;0.30;0.30;;;;;;;;;;4993075;28;20033;-77
2022/01/02 11:22:14;;;;;;;0.30;0.30;;;;;;;;;;4996299;28;20030;-77
2022/01/02 11:24:47;;;;;;;0.40;0.40;;;;;;;;;;4990716;28;20038;-77
2022/01/02 11:27:22;;;;;;;0.30;0.30;;;;;;;;;;4993282;28;20030;-76
2022/01/02 11:29:48;;;;;;;0.30;0.30;;;;;;;;;;4993400;28;20109;-76
2022/01/02 11:32:25;;;;;;;0.30;0.30;;;;;;;;;;4996049;28;20106;-76
2022/01/02 11:34:51;;;;;;;0.30;0.30;;;;;;;;;;4993503;28;20076;-77
2022/01/02 11:37:20;;;;;;;0.30;0.30;;;;;;;;;;4996101;28;20057;-77
2022/01/02 11:39:58;;;;;;;0.30;0.30;;;;;;;;;;4993194;28;20066;-77
2022/01/02 11:42:42;;;;;;;0.30;0.30;;;;;;;;;;4996411;28;20039;-76
2022/01/02 11:45:09;;;;;;;0.35;0.35;;;;;;;;;;4993028;28;20092;-77
2022/01/02 11:47:35;;;;;;;;;;;;;;;;;;4999290;28;20042;-77
2022/01/02 11:50:01;;;;;;;0.25;0.25;;;;;;;;;;4994801;28;19956;-77
2022/01/02 11:52:28;;;;;;;0.37;0.37;;;;;;;;;;4990351;28;20034;-77
2022/01/02 11:54:54;;;;;;;;;;;;;;;;;;4991758;28;20289;-77
2022/01/02 11:57:23;;;;;;;0.20;0.20;;;;;;;;;;4999984;28;19928;-76
2022/01/02 11:59:50;;;;;;;0.40;0.40;;;;;;;;;;4997539;28;20030;-76
2022/01/02 12:02:19;;;;;;;0.30;0.30;;;;;;;;;;4994631;28;20569;-77
2022/01/02 12:07:36;;;;;;;0.40;0.40;;;;;;;;;;4992354;28;20488;-77
2022/01/02 12:10:17;;;;;;;0.30;0.30;;;;;;;;;;4994133;28;20045;-76
2022/01/02 12:12:58;;;;;;;0.30;0.30;;;;;;;;;;4990141;28;20083;-76
2022/01/02 12:15:24;;;;;;;0.30;0.30;;;;;;;;;;4987439;28;20065;-76
2022/01/02 12:18:06;;;;;;;0.30;0.30;;;;;;;;;;4995154;28;20037;-76
2022/01/02 12:20:53;;;;;;;0.30;0.30;;;;;;;;;;5014600;28;20536;-76
2022/01/02 12:23:42;;;;;;;0.30;0.30;;;;;;;;;;5005144;28;20025;-77
2022/01/02 12:26:12;;;;;;;0.30;0.30;;;;;;;;;;4997410;28;20041;-76
2022/01/02 12:28:42;;;;;;;0.35;0.35;;;;;;;;;;5001722;28;20530;-77
2022/01/02 12:31:09;;;;;;;0.20;0.20;;;;;;;;;;5003476;28;20038;-77
2022/01/02 12:33:36;;;;;;;0.30;0.30;;;;;;;;;;5011136;28;20541;-77
2022/01/02 12:36:12;;;;;;;0.30;0.30;;;;;;;;;;4997943;28;20133;-77
2022/01/02 12:38:50;;;;;;;0.30;0.30;;;;;;;;;;4991098;28;20421;-77
2022/01/02 12:41:19;;;;;;;0.30;0.30;;;;;;;;;;4993136;28;20796;-77
2022/01/02 12:44:01;;;;;;;0.30;0.30;;;;;;;;;;4989213;28;20030;-77
2022/01/02 12:46:40;;;;;;;0.30;0.30;;;;;;;;;;4994733;28;20081;-76
2022/01/02 12:49:16;;;;;;;0.30;0.30;;;;;;;;;;5000865;28;20030;-78
2022/01/02 12:51:47;;;;;;;0.20;0.20;;;;;;;;;;4995860;28;20175;-76
2022/01/02 12:54:17;;;;;;;0.20;0.20;;;;;;;;;;4990886;28;20037;-75
2022/01/02 12:56:50;;;;;;;0.20;0.20;;;;;;;;;;4989856;28;20133;-75
2022/01/02 12:59:20;;;;;;;0.30;0.30;;;;;;;;;;4991672;28;20117;-77
2022/01/02 13:01:50;;;;;;;0.20;0.20;;;;;;;;;;4990510;28;20026;-76
2022/01/02 13:04:21;;;;;;;0.20;0.20;;;;;;;;;;4988774;28;20485;-76
2022/01/02 13:06:47;;;;;;;0.38;0.38;;;;;;;;;;4989875;28;20140;-76
2022/01/02 13:09:24;;;;;;;0.30;0.30;;;;;;;;;;4997752;28;20034;-76
2022/01/02 13:11:50;;;;;;;0.20;0.20;;;;;;;;;;4993488;28;20327;-76
2022/01/02 13:14:35;;;;;;;0.20;0.20;;;;;;;;;;5000673;28;20058;-78
2022/01/02 13:17:02;;;;;;;0.20;0.20;;;;;;;;;;4999400;28;20041;-77
2022/01/02 13:19:31;;;;;;;0.20;0.20;;;;;;;;;;5011398;28;20038;-77
2022/01/02 13:21:57;;;;;;;0.30;0.30;;;;;;;;;;5008030;28;20039;-77
2022/01/02 13:24:27;;;;;;;0.30;0.30;;;;;;;;;;4992044;28;20037;-76
2022/01/02 13:26:53;;;;;;;0.20;0.20;;;;;;;;;;4992101;28;20033;-76
2022/01/02 13:29:22;;;;;;;0.30;0.30;;;;;;;;;;4993785;28;20054;-83
2022/01/02 13:31:48;;;;;;;0.20;0.20;;;;;;;;;;4990632;28;20034;-82
2022/01/02 13:34:27;;;;;;;0.20;0.20;;;;;;;;;;4986906;28;20036;-82
2022/01/02 13:37:00;;;;;;;0.57;0.57;;;;;;;;;;4985905;28;20800;-82
2022/01/02 13:39:43;;;;;;;0.20;0.20;;;;;;;;;;4988003;28;20030;-82
2022/01/02 13:42:10;;;;;;;0.28;0.28;;;;;;;;;;4986279;28;20034;-82
2022/01/02 13:44:47;;;;;;;0.30;0.30;;;;;;;;;;4986715;28;20490;-82
2022/01/02 13:47:13;;;;;;;0.20;0.20;;;;;;;;;;4989774;28;20056;-82
2022/01/02 13:49:43;;;;;;;0.37;0.37;;;;;;;;;;4989669;28;20570;-82
2022/01/02 13:52:10;;;;;;;0.20;0.20;;;;;;;;;;4989857;28;20286;-82
2022/01/02 13:54:36;;;;;;;0.30;0.30;;;;;;;;;;4988177;28;20030;-82
2022/01/02 13:57:05;;;;;;;0.22;0.22;;;;;;;;;;4986373;28;20054;-82
2022/01/02 13:59:32;;;;;;;0.30;0.30;;;;;;;;;;4989959;28;20402;-82
2022/01/02 14:01:58;;;;;;;0.20;0.20;;;;;;;;;;4986987;28;20077;-82
2022/01/02 14:04:24;;;;;;;0.30;0.30;;;;;;;;;;4987114;28;20026;-82
2022/01/02 14:06:50;;;;;;;0.30;0.30;;;;;;;;;;4985632;28;20038;-82
2022/01/02 14:09:17;;;;;;;0.30;0.30;;;;;;;;;;5017454;28;20025;-82
2022/01/02 14:11:46;;;;;;;0.40;0.40;;;;;;;;;;4989620;28;20081;-82
2022/01/02 14:14:21;;;;;;;0.20;0.20;;;;;;;;;;4987573;28;20044;-82
2022/01/02 14:17:01;;;;;;;0.30;0.30;;;;;;;;;;4983484;28;20585;-82
2022/01/02 14:19:27;;;;;;;0.20;0.20;;;;;;;;;;4986867;28;20442;-82
2022/01/02 14:21:53;;;;;;;0.30;0.30;;;;;;;;;;4987363;28;20030;-82
2022/01/02 14:24:19;;;;;;;0.30;0.30;;;;;;;;;;4985925;28;20033;-82
2022/01/02 14:26:46;;;;;;;0.20;0.20;;;;;;;;;;5025947;28;20791;-82
2022/01/02 14:29:12;;;;;;;0.20;0.20;;;;;;;;;;4989323;28;20034;-82
2022/01/02 14:31:39;;;;;;;0.40;0.40;;;;;;;;;;4988511;28;20065;-82
2022/01/02 14:34:05;;;;;;;0.30;0.30;;;;;;;;;;4986196;28;20498;-82
2022/01/02 14:36:32;;;;;;;0.27;0.27;;;;;;;;;;4984399;28;20046;-82
2022/01/02 14:38:58;;;;;;;0.20;0.20;;;;;;;;;;4984819;28;20112;-82
2022/01/02 14:41:24;;;;;;;0.30;0.30;;;;;;;;;;4985274;28;20034;-82
2022/01/02 14:43:51;;;;;;;0.20;0.20;;;;;;;;;;4990215;28;21023;-82
2022/01/02 14:46:18;;;;;;;0.30;0.30;;;;;;;;;;4990990;28;20057;-82
2022/01/02 14:48:44;;;;;;;0.40;0.40;;;;;;;;;;4989508;28;20058;-82
2022/01/02 14:51:10;;;;;;;0.30;0.30;;;;;;;;;;4995178;28;20034;-82
2022/01/02 14:53:40;;;;;;;0.20;0.20;;;;;;;;;;4990610;28;20516;-82
2022/01/02 14:56:06;;;;;;;0.20;0.20;;;;;;;;;;5024405;28;20027;-82
2022/01/02 14:58:32;;;;;;;0.30;0.30;;;;;;;;;;4993152;28;20034;-82